createdAt,value
2023-11-30T00:55:17.685Z,5.70
2023-11-30T00:57:47.941Z,5.60
2023-11-30T01:00:17.464Z,5.50
2023-11-30T01:02:46.229Z,5.50
2023-11-30T01:05:15.079Z,5.50
2023-11-30T01:07:43.819Z,5.50
2023-11-30T01:10:12.516Z,5.60
2023-11-30T01:12:41.859Z,5.50
2023-11-30T01:15:12.478Z,5.40
2023-11-30T01:17:41.984Z,5.50
2023-11-30T01:20:12.001Z,5.50
2023-11-30T01:22:40.787Z,5.50
2023-11-30T01:25:10.000Z,5.60
2023-11-30T01:27:39.214Z,5.50
2023-11-30T01:30:08.687Z,5.50
2023-11-30T01:32:38.918Z,5.30
2023-11-30T01:35:09.779Z,5.40
2023-11-30T01:37:39.970Z,5.40
2023-11-30T01:40:10.846Z,5.40
2023-11-30T01:42:40.131Z,5.30
2023-11-30T01:45:10.757Z,5.30
2023-11-30T01:47:41.086Z,5.30
2023-11-30T01:50:10.744Z,5.40
2023-11-30T01:52:39.686Z,5.50
2023-11-30T01:55:10.593Z,5.60
2023-11-30T01:57:40.711Z,5.50
2023-11-30T02:00:11.691Z,5.40
2023-11-30T02:02:45.557Z,5.40
2023-11-30T02:05:14.763Z,5.50
2023-11-30T02:07:43.595Z,5.60
2023-11-30T02:10:12.492Z,5.60
2023-11-30T02:12:41.685Z,5.50
2023-11-30T02:15:12.245Z,5.60
2023-11-30T02:17:41.074Z,5.70
2023-11-30T02:20:12.317Z,5.70
2023-11-30T02:22:42.855Z,5.60
2023-11-30T02:25:11.680Z,5.40
2023-11-30T02:27:40.725Z,5.20
2023-11-30T02:30:11.555Z,5.20
2023-11-30T02:32:40.538Z,5.20
2023-11-30T02:35:10.159Z,5.30
2023-11-30T02:37:39.313Z,5.40
2023-11-30T02:40:10.824Z,5.40
2023-11-30T02:42:39.573Z,5.30
2023-11-30T02:45:09.730Z,5.30
2023-11-30T02:47:38.572Z,5.40
2023-11-30T02:50:08.627Z,5.60
2023-11-30T02:52:37.347Z,5.60
2023-11-30T02:55:06.920Z,5.70
2023-11-30T02:57:37.959Z,5.70
2023-11-30T03:00:08.230Z,5.80
2023-11-30T03:02:36.983Z,5.70
2023-11-30T03:05:06.485Z,5.80
2023-11-30T03:07:35.245Z,5.80
2023-11-30T03:10:04.556Z,5.90
2023-11-30T03:12:33.373Z,5.90
2023-11-30T03:15:04.026Z,6.00
2023-11-30T03:17:33.289Z,6.10
2023-11-30T03:20:02.045Z,6.20
2023-11-30T03:22:30.862Z,6.30
2023-11-30T03:24:59.652Z,6.00
2023-11-30T03:27:28.379Z,6.00
2023-11-30T03:29:57.163Z,5.90
2023-11-30T03:32:27.331Z,5.90
2023-11-30T03:34:56.043Z,6.00
2023-11-30T03:37:24.779Z,6.10
2023-11-30T03:39:53.642Z,6.10
2023-11-30T03:42:22.609Z,6.00
2023-11-30T03:44:51.360Z,5.90
2023-11-30T03:47:20.096Z,5.70
2023-11-30T03:49:50.229Z,5.60
2023-11-30T03:52:18.978Z,5.60
2023-11-30T03:54:47.844Z,5.60
2023-11-30T03:57:16.716Z,5.60
2023-11-30T03:59:45.741Z,5.70
2023-11-30T04:02:14.479Z,5.50
2023-11-30T04:04:43.911Z,5.60
2023-11-30T04:07:14.200Z,5.60
2023-11-30T04:09:43.078Z,5.60
2023-11-30T04:12:11.874Z,5.60
2023-11-30T04:14:40.600Z,5.40
2023-11-30T04:17:09.364Z,5.50
2023-11-30T04:19:38.131Z,5.50
2023-11-30T04:22:06.899Z,5.60
2023-11-30T04:24:37.072Z,5.60
2023-11-30T04:27:06.557Z,5.70
2023-11-30T04:29:35.610Z,5.80
2023-11-30T04:32:05.062Z,5.80
2023-11-30T04:34:34.838Z,5.80
2023-11-30T04:37:03.625Z,5.70
2023-11-30T04:39:32.321Z,5.60
2023-11-30T04:42:02.917Z,5.40
2023-11-30T04:44:31.713Z,5.30
2023-11-30T04:47:01.118Z,5.30
2023-11-30T04:49:29.833Z,5.40
2023-11-30T04:52:00.094Z,5.50
2023-11-30T04:54:29.057Z,5.60
2023-11-30T04:56:57.787Z,5.60
2023-11-30T04:59:27.952Z,5.50
2023-11-30T05:01:56.803Z,5.50
2023-11-30T05:04:25.607Z,5.40
2023-11-30T05:06:54.331Z,5.40
2023-11-30T05:09:23.022Z,5.40
2023-11-30T05:11:51.712Z,5.40
2023-11-30T05:14:20.374Z,5.30
2023-11-30T05:16:50.475Z,5.40
2023-11-30T05:19:19.188Z,5.40
2023-11-30T05:21:47.936Z,5.40
2023-11-30T05:24:16.634Z,5.20
2023-11-30T05:26:45.462Z,5.30
2023-11-30T05:29:14.212Z,5.20
2023-11-30T05:31:43.087Z,5.30
2023-11-30T05:34:13.235Z,5.30
2023-11-30T05:36:42.532Z,5.30
2023-11-30T05:39:12.065Z,5.20
2023-11-30T05:41:40.792Z,5.30
2023-11-30T05:44:09.580Z,5.30
2023-11-30T05:46:39.247Z,5.30
2023-11-30T05:49:08.107Z,5.50
2023-11-30T05:51:38.200Z,5.50
2023-11-30T05:54:07.384Z,5.50
2023-11-30T05:56:36.164Z,5.60
2023-11-30T05:59:04.852Z,5.60
2023-11-30T06:01:33.574Z,5.50
2023-11-30T06:04:03.141Z,5.40
2023-11-30T06:06:32.132Z,5.30
2023-11-30T06:09:02.258Z,5.30
2023-11-30T06:11:31.563Z,5.20
2023-11-30T06:14:01.704Z,5.00
2023-11-30T06:16:30.773Z,5.00
2023-11-30T06:18:59.470Z,5.00
2023-11-30T06:21:28.157Z,4.90
2023-11-30T06:23:56.900Z,4.90
2023-11-30T06:26:27.002Z,4.80
2023-11-30T06:28:55.708Z,4.80
2023-11-30T06:31:24.431Z,4.80
2023-11-30T06:33:53.125Z,4.80
2023-11-30T06:36:22.870Z,4.90
2023-11-30T06:38:51.726Z,4.90
2023-11-30T06:41:20.480Z,4.90
2023-11-30T06:43:50.638Z,4.90
2023-11-30T06:46:22.600Z,4.80
2023-11-30T06:48:51.591Z,4.80
2023-11-30T06:51:20.779Z,4.80
2023-11-30T06:53:49.517Z,4.80
2023-11-30T06:56:18.230Z,4.70
2023-11-30T06:58:47.079Z,4.70
2023-11-30T07:01:17.309Z,4.60
2023-11-30T07:03:46.301Z,4.70
2023-11-30T07:06:15.266Z,4.80
2023-11-30T07:08:44.118Z,4.80
2023-11-30T07:11:13.470Z,4.80
2023-11-30T07:13:42.328Z,4.80
2023-11-30T07:16:12.437Z,4.80
2023-11-30T07:18:42.836Z,4.90
2023-11-30T07:21:15.727Z,4.90
2023-11-30T07:23:45.062Z,4.90
2023-11-30T07:26:14.525Z,4.80
2023-11-30T07:28:43.713Z,4.70
2023-11-30T07:31:20.030Z,4.70
2023-11-30T07:33:50.890Z,4.60
2023-11-30T07:36:19.698Z,4.40
2023-11-30T07:38:49.823Z,4.30
2023-11-30T07:41:19.114Z,4.20
2023-11-30T07:43:47.978Z,4.30
2023-11-30T07:46:17.262Z,4.30
2023-11-30T07:48:46.213Z,4.50
2023-11-30T07:51:16.509Z,4.50
2023-11-30T07:53:45.228Z,4.50
2023-11-30T07:56:14.320Z,4.60
2023-11-30T07:58:45.166Z,4.50
2023-11-30T08:01:14.228Z,4.50
2023-11-30T08:03:43.812Z,4.50
2023-11-30T08:06:12.814Z,4.50
2023-11-30T08:08:43.068Z,4.30
2023-11-30T08:11:13.377Z,4.30
2023-11-30T08:13:42.158Z,4.20
2023-11-30T08:16:11.150Z,4.20
2023-11-30T08:18:40.386Z,4.40
2023-11-30T08:21:09.514Z,4.40
2023-11-30T08:23:43.441Z,4.40
2023-11-30T08:26:16.366Z,4.10
2023-11-30T08:28:46.153Z,4.00
2023-11-30T08:31:15.088Z,3.90
2023-11-30T08:33:43.872Z,4.00
2023-11-30T08:36:13.431Z,4.30
2023-11-30T08:38:42.173Z,4.20
2023-11-30T08:41:11.030Z,4.30
2023-11-30T08:43:41.138Z,4.50
2023-11-30T08:46:10.263Z,4.60
2023-11-30T08:48:39.015Z,4.70
2023-11-30T08:51:09.586Z,4.60
2023-11-30T08:53:38.358Z,4.70
2023-11-30T08:56:08.223Z,4.80
2023-11-30T08:58:37.045Z,4.90
2023-11-30T09:01:08.447Z,4.80
2023-11-30T09:06:52.326Z,4.80
2023-11-30T09:09:21.529Z,4.70
2023-11-30T09:11:50.371Z,4.50
2023-11-30T09:14:19.264Z,4.50
2023-11-30T09:16:49.446Z,4.30
2023-11-30T09:19:18.255Z,4.10
2023-11-30T09:21:47.055Z,3.80
2023-11-30T09:27:14.820Z,3.50
2023-11-30T09:29:44.731Z,3.60
2023-11-30T09:32:15.156Z,3.40
2023-11-30T09:34:43.939Z,3.60
2023-11-30T09:37:12.814Z,3.70
2023-11-30T09:39:42.257Z,3.70
2023-11-30T09:42:17.251Z,3.60
2023-11-30T09:44:46.151Z,3.50
2023-11-30T09:47:17.932Z,3.60
2023-11-30T09:49:46.729Z,3.70
2023-11-30T09:52:15.658Z,3.70
2023-11-30T09:54:45.212Z,3.80
2023-11-30T10:00:14.274Z,3.90
2023-11-30T10:02:54.814Z,3.70
2023-11-30T10:05:26.457Z,3.70
2023-11-30T10:07:55.532Z,3.80
2023-11-30T10:10:24.419Z,3.70
2023-11-30T10:12:54.381Z,3.80
2023-11-30T10:15:23.714Z,3.70
2023-11-30T10:17:54.173Z,3.70
2023-11-30T10:20:23.043Z,3.70
2023-11-30T10:22:52.338Z,3.90
2023-11-30T10:25:21.118Z,4.10
2023-11-30T10:27:53.480Z,4.20
2023-11-30T10:30:27.616Z,4.10
2023-11-30T10:32:59.226Z,4.10
2023-11-30T10:35:31.822Z,4.10
2023-11-30T10:38:03.488Z,4.20
2023-11-30T10:40:32.342Z,4.40
2023-11-30T10:43:05.980Z,4.50
2023-11-30T10:45:39.627Z,4.50
2023-11-30T10:48:14.059Z,4.60
2023-11-30T10:50:42.849Z,4.60
2023-11-30T10:53:23.258Z,4.80
2023-11-30T10:55:53.357Z,4.90
2023-11-30T11:01:24.753Z,5.10
2023-11-30T11:03:58.087Z,5.10
2023-11-30T12:18:57.455Z,5.20
2023-11-30T12:21:26.190Z,5.20
2023-11-30T12:23:55.006Z,5.10
2023-11-30T12:26:23.738Z,4.70
2023-11-30T12:28:52.486Z,4.90
2023-11-30T12:31:21.305Z,5.20
2023-11-30T12:33:51.695Z,5.50
2023-11-30T12:36:23.806Z,5.50
2023-11-30T12:38:53.506Z,5.20
2023-11-30T12:41:22.221Z,5.30
2023-11-30T12:43:50.982Z,5.40
2023-11-30T12:46:19.735Z,5.10
2023-11-30T12:48:51.806Z,5.00
2023-11-30T12:51:22.569Z,4.90
2023-11-30T12:53:53.757Z,4.90
2023-11-30T12:56:30.736Z,4.90
2023-11-30T12:58:59.878Z,5.00
2023-11-30T13:01:28.647Z,5.10
2023-11-30T13:03:57.788Z,5.30
2023-11-30T13:06:28.013Z,5.30
2023-11-30T13:08:56.760Z,5.20
2023-11-30T13:11:25.508Z,5.40
2023-11-30T13:13:56.024Z,5.40
2023-11-30T13:16:25.599Z,5.20
2023-11-30T13:18:54.496Z,5.30
2023-11-30T13:21:23.801Z,5.30
2023-11-30T13:23:54.494Z,5.20
2023-11-30T13:26:23.608Z,5.30
2023-11-30T13:28:52.920Z,5.40
2023-11-30T13:31:22.928Z,5.60
2023-11-30T13:33:52.445Z,5.50
2023-11-30T13:36:21.474Z,5.60
2023-11-30T13:38:50.885Z,5.70
2023-11-30T13:41:23.051Z,5.50
2023-11-30T13:43:51.843Z,5.50
2023-11-30T13:46:22.388Z,5.10
2023-11-30T13:48:53.076Z,5.00
2023-11-30T13:51:21.932Z,5.00
2023-11-30T13:53:50.718Z,5.10
2023-11-30T13:56:26.176Z,5.00
2023-11-30T13:58:55.462Z,4.90
2023-11-30T14:01:24.367Z,4.90
2023-11-30T14:03:53.510Z,5.00
2023-11-30T14:06:22.398Z,4.80
2023-11-30T14:08:51.201Z,4.60
2023-11-30T14:11:21.743Z,4.50
2023-11-30T14:13:50.467Z,4.60
2023-11-30T14:16:19.456Z,4.80
2023-11-30T14:18:48.868Z,4.90
2023-11-30T14:21:17.598Z,5.00
2023-11-30T14:23:46.409Z,5.20
2023-11-30T14:26:16.288Z,5.20
2023-11-30T14:28:49.117Z,5.10
2023-11-30T14:31:18.574Z,5.10
2023-11-30T14:33:47.465Z,5.10
2023-11-30T14:36:16.861Z,5.00
2023-11-30T14:38:45.879Z,4.80
2023-11-30T14:41:14.691Z,4.70
2023-11-30T14:43:43.463Z,4.70
2023-11-30T14:46:14.039Z,4.70
2023-11-30T14:48:44.358Z,4.70
2023-11-30T14:51:14.516Z,4.50
2023-11-30T14:53:43.426Z,4.40
2023-11-30T14:56:12.850Z,4.40
2023-11-30T14:58:42.328Z,4.40
2023-11-30T15:01:12.955Z,4.30
2023-11-30T15:03:43.454Z,4.40
2023-11-30T15:06:12.375Z,4.30
2023-11-30T15:08:41.111Z,4.10
2023-11-30T15:11:10.414Z,3.90
2023-11-30T15:13:39.343Z,3.90
2023-11-30T15:16:08.361Z,3.90
2023-11-30T15:18:37.237Z,3.90
2023-11-30T15:21:07.767Z,4.10
2023-11-30T15:23:36.883Z,4.10
2023-11-30T15:26:05.844Z,4.10
2023-11-30T15:28:35.308Z,3.90
2023-11-30T15:31:04.106Z,3.70
2023-11-30T15:33:33.033Z,3.60
2023-11-30T15:36:01.962Z,3.70
2023-11-30T15:38:34.010Z,3.80
2023-11-30T15:41:04.202Z,4.00
2023-11-30T15:43:38.471Z,4.10
2023-11-30T15:46:07.784Z,4.10
2023-11-30T15:48:37.400Z,3.90
2023-11-30T15:51:07.031Z,3.70
2023-11-30T15:53:38.082Z,3.70
2023-11-30T15:56:07.237Z,3.70
2023-11-30T15:58:38.383Z,3.70
2023-11-30T16:01:12.269Z,4.00
2023-11-30T16:03:41.466Z,4.00
2023-11-30T16:06:11.898Z,4.30
2023-11-30T16:08:42.024Z,4.30
2023-11-30T16:11:15.092Z,4.20
2023-11-30T16:13:43.966Z,4.10
2023-11-30T16:16:13.968Z,4.00
2023-11-30T16:18:42.907Z,4.00
2023-11-30T16:21:16.807Z,3.90
2023-11-30T16:23:47.792Z,4.00
2023-11-30T16:26:19.996Z,4.00
2023-11-30T16:28:49.715Z,3.90
2023-11-30T16:31:18.750Z,3.90
2023-11-30T16:33:50.018Z,3.90
2023-11-30T16:36:19.506Z,3.90
2023-11-30T16:38:50.269Z,3.70
2023-11-30T16:41:19.374Z,3.50
2023-11-30T16:43:48.135Z,3.30
2023-11-30T16:46:17.447Z,3.10
2023-11-30T16:48:47.716Z,3.10
2023-11-30T16:51:16.521Z,3.10
2023-11-30T16:53:45.249Z,3.20
2023-11-30T16:56:15.522Z,3.20
2023-11-30T16:58:44.257Z,3.10
2023-11-30T17:01:12.946Z,3.40
2023-11-30T17:03:41.821Z,3.40
2023-11-30T17:06:10.886Z,3.30
2023-11-30T17:08:39.931Z,3.30
2023-11-30T17:11:09.794Z,3.30
2023-11-30T17:13:43.143Z,3.40
2023-11-30T17:16:12.913Z,3.50
2023-11-30T17:18:46.153Z,3.20
2023-11-30T17:21:15.980Z,3.30
2023-11-30T17:23:45.701Z,3.50
2023-11-30T17:26:15.094Z,3.40
2023-11-30T17:28:46.056Z,3.50
2023-11-30T17:31:15.095Z,3.30
2023-11-30T17:33:44.190Z,3.30
2023-11-30T17:36:13.589Z,3.20
2023-11-30T17:38:42.659Z,3.20
2023-11-30T17:41:11.739Z,3.40
2023-11-30T17:43:40.849Z,3.60
2023-11-30T17:46:11.276Z,3.70
2023-11-30T17:48:40.208Z,3.60
2023-11-30T17:51:12.697Z,3.70
2023-11-30T17:53:41.768Z,3.90
2023-11-30T17:56:10.812Z,3.70
2023-11-30T17:58:39.811Z,3.60
2023-11-30T18:01:10.456Z,3.70
2023-11-30T18:03:39.453Z,3.60
2023-11-30T18:06:10.530Z,3.40
2023-11-30T18:08:39.735Z,3.30
2023-11-30T18:11:13.013Z,3.40
2023-11-30T18:13:42.605Z,3.60
2023-11-30T18:16:13.578Z,3.70
2023-11-30T18:18:42.833Z,3.70
2023-11-30T18:21:13.017Z,3.60
2023-11-30T18:23:41.979Z,3.70
2023-11-30T18:26:10.695Z,3.60
2023-11-30T18:28:42.708Z,3.70
2023-11-30T18:31:20.385Z,3.50
2023-11-30T18:33:51.806Z,3.50
2023-11-30T18:36:20.727Z,3.60
2023-11-30T18:38:51.631Z,3.60
2023-11-30T18:41:21.376Z,3.60
2023-11-30T18:43:51.221Z,3.60
2023-11-30T18:46:21.643Z,3.60
2023-11-30T18:48:50.746Z,3.80
2023-11-30T18:51:19.607Z,3.80
2023-11-30T18:53:48.540Z,3.60
2023-11-30T18:56:20.561Z,3.40
2023-11-30T18:58:49.392Z,3.20
2023-11-30T19:01:18.136Z,3.20
2023-11-30T19:03:48.367Z,3.00
2023-11-30T19:06:17.703Z,3.00
2023-11-30T19:08:47.250Z,3.10
2023-11-30T19:11:17.099Z,3.40
2023-11-30T19:13:46.115Z,3.60
2023-11-30T19:16:18.519Z,3.50
2023-11-30T19:18:50.045Z,3.40
2023-11-30T19:21:19.675Z,3.40
2023-11-30T19:23:48.657Z,3.50
2023-11-30T19:26:17.753Z,3.40
2023-11-30T19:28:46.541Z,3.40
2023-11-30T19:31:15.347Z,3.50
2023-11-30T19:33:44.281Z,3.40
2023-11-30T19:36:14.841Z,3.60
2023-11-30T19:38:43.563Z,3.50
2023-11-30T19:41:12.642Z,3.50
2023-11-30T19:43:41.792Z,3.60
2023-11-30T19:46:10.661Z,3.50
2023-11-30T19:48:39.597Z,3.60
2023-11-30T19:51:08.782Z,3.70
2023-11-30T19:53:38.847Z,3.70
2023-11-30T19:56:08.275Z,3.80
2023-11-30T19:58:37.014Z,3.60
2023-11-30T20:01:06.690Z,3.60
2023-11-30T20:03:35.678Z,3.50
2023-11-30T20:06:04.849Z,3.50
2023-11-30T20:08:33.750Z,3.40
2023-11-30T20:11:06.437Z,3.40
2023-11-30T20:13:35.222Z,3.40
2023-11-30T20:16:05.493Z,3.30
2023-11-30T20:18:35.759Z,3.20
2023-11-30T20:21:05.734Z,3.30
2023-11-30T20:23:34.453Z,3.50
2023-11-30T20:26:04.649Z,3.60
2023-11-30T20:28:33.379Z,3.60
2023-11-30T20:31:02.283Z,3.70
2023-11-30T20:33:31.145Z,3.60
2023-11-30T20:35:59.978Z,3.70
2023-11-30T20:38:30.009Z,3.70
2023-11-30T20:40:59.019Z,3.40
2023-11-30T20:43:29.807Z,3.30
2023-11-30T20:45:58.520Z,3.30
2023-11-30T20:48:27.333Z,3.40
2023-11-30T20:50:56.028Z,3.30
2023-11-30T20:53:24.801Z,3.30
2023-11-30T20:55:53.519Z,3.50
2023-11-30T20:58:22.320Z,3.50
2023-11-30T21:00:52.534Z,3.50
2023-11-30T21:03:21.456Z,3.30
2023-11-30T21:05:50.324Z,3.20
2023-11-30T21:08:19.291Z,3.40
2023-11-30T21:10:48.141Z,3.30
2023-11-30T21:13:18.354Z,3.30
2023-11-30T21:15:47.113Z,3.40
2023-11-30T21:18:17.309Z,3.50
2023-11-30T21:20:46.097Z,3.40
2023-11-30T21:23:14.849Z,3.50
2023-11-30T21:25:44.454Z,3.60
2023-11-30T21:28:14.360Z,3.70
2023-11-30T21:30:43.259Z,3.80
2023-11-30T21:33:12.150Z,3.70
2023-11-30T21:35:42.364Z,3.70
2023-11-30T21:38:11.143Z,3.70
2023-11-30T21:40:40.410Z,3.80
2023-11-30T21:43:09.432Z,3.80
2023-11-30T21:45:38.305Z,3.80
2023-11-30T21:48:07.673Z,3.90
2023-11-30T21:50:36.548Z,3.90
2023-11-30T21:53:06.783Z,3.90
2023-11-30T21:55:35.571Z,3.80
2023-11-30T21:58:05.549Z,3.80
2023-11-30T22:00:35.128Z,3.80
2023-11-30T22:03:04.329Z,3.80
2023-11-30T22:05:36.450Z,3.90
2023-11-30T22:08:07.426Z,3.90
2023-11-30T22:10:36.196Z,3.60
2023-11-30T22:13:06.365Z,3.30
2023-11-30T22:15:35.174Z,3.40
2023-11-30T22:18:05.535Z,3.20
2023-11-30T22:20:35.393Z,3.20
2023-11-30T22:23:04.165Z,3.10
2023-11-30T22:25:34.253Z,3.20
2023-11-30T22:28:03.024Z,3.20
2023-11-30T22:30:31.854Z,3.30
2023-11-30T22:33:00.708Z,3.40
2023-11-30T22:35:29.549Z,3.40
2023-11-30T22:37:58.636Z,3.50
2023-11-30T22:40:27.600Z,3.50
2023-11-30T22:42:57.725Z,3.60
2023-11-30T22:45:26.579Z,3.50
2023-11-30T22:47:55.354Z,3.50
2023-11-30T22:50:25.394Z,3.40
2023-11-30T22:52:54.607Z,3.50
2023-11-30T22:55:23.998Z,3.50
2023-11-30T22:57:52.984Z,3.50
2023-11-30T23:00:25.511Z,3.60
2023-11-30T23:02:54.692Z,3.70
2023-11-30T23:05:23.996Z,3.90
2023-11-30T23:07:52.767Z,3.90
2023-11-30T23:10:21.599Z,3.80
2023-11-30T23:12:50.555Z,3.80
2023-11-30T23:15:19.377Z,3.90
2023-11-30T23:17:49.571Z,4.00
2023-11-30T23:20:19.080Z,4.00
2023-11-30T23:22:47.793Z,4.10
2023-11-30T23:25:16.812Z,4.10
2023-11-30T23:27:45.574Z,4.10
2023-11-30T23:30:14.672Z,4.10
2023-11-30T23:32:44.257Z,4.00
2023-11-30T23:35:15.774Z,3.90
2023-11-30T23:37:44.657Z,4.00
2023-11-30T23:40:14.620Z,4.00
2023-11-30T23:42:43.327Z,4.00
2023-11-30T23:45:12.442Z,3.90
2023-11-30T23:47:41.118Z,3.90
2023-11-30T23:50:10.763Z,4.00
2023-11-30T23:52:40.927Z,3.90
2023-11-30T23:55:10.213Z,3.90
2023-11-30T23:57:39.014Z,3.90
